Time;durP1;ratioP1;P1;durP2;ratioP2;P2;SDS_P1;SDS_P2;PMS_P1;PMS_P2;Temp;Humidity;BMP_temperature;BMP_pressure;BME280_temperature;BME280_humidity;BME280_pressure;Samples;Min_cycle;Max_cycle;Signal;HPM_P1;HPM_P2
2023/07/12 00:01:14;;;;;;;;;;;;;;;29.63;53.28;96611.59;4239003;27;5789;-61
2023/07/12 00:03:18;;;;;;;;;;;;;;;29.60;53.44;96585.00;4237058;28;5743;-61
2023/07/12 00:05:21;;;;;;;;;;;;;;;29.55;52.95;96603.09;4235530;27;5789;-61
2023/07/12 00:07:24;;;;;;;;;;;;;;;29.57;53.09;96630.03;4232868;27;5593;-60
2023/07/12 00:09:27;;;;;;;;;;;;;;;29.59;52.80;96621.56;4237055;28;5914;-60
2023/07/12 00:11:30;;;;;;;;;;;;;;;29.61;52.91;96622.03;4237249;28;5083;-60
2023/07/12 00:13:32;;;;;;;;;;;;;;;29.62;52.70;96623.63;4228826;28;5692;-61
2023/07/12 00:15:36;;;;;;;;;;;;;;;29.61;52.77;96622.03;4235961;28;5691;-60
2023/07/12 00:17:39;;;;;;;;;;;;;;;29.62;52.63;96631.78;4236517;28;5581;-60
2023/07/12 00:19:44;;;;;;;;;;;;;;;29.63;52.63;96622.50;4236765;28;6704;-60
2023/07/12 00:21:47;;;;;;;;;;;;;;;29.61;52.58;96625.53;4237176;28;5692;-60
2023/07/12 00:23:49;;;;;;;;;;;;;;;29.60;52.66;96623.16;4236462;28;7708;-61
2023/07/12 00:25:52;;;;;;;;;;;;;;;29.57;52.58;96630.03;4236808;28;5766;-61
2023/07/12 00:27:55;;;;;;;;;;;;;;;29.54;52.85;96647.81;4236911;28;5795;-60
2023/07/12 00:29:57;;;;;;;;;;;;;;;29.56;52.47;96651.03;4235666;28;5505;-60
2023/07/12 00:32:00;;;;;;;;;;;;;;;29.59;52.61;96640.63;4236727;28;5804;-61
2023/07/12 00:34:03;;;;;;;;;;;;;;;29.55;52.75;96649.41;4236796;28;5612;-60
2023/07/12 00:36:13;;;;;;;;;;;;;;;29.58;52.69;96660.81;4236388;28;5691;-61
2023/07/12 00:38:20;;;;;;;;;;;;;;;29.57;52.76;96657.28;4236681;28;5696;-60
2023/07/12 00:41:11;;;;;;;;;;;;;;;29.50;52.73;96635.16;4236805;28;5649;-61
2023/07/12 00:43:21;;;;;;;;;;;;;;;29.46;52.73;96605.00;4184317;28;5845;-61
2023/07/12 00:45:26;;;;;;;;;;;;;;;29.43;52.84;96574.88;4167770;28;5816;-61
2023/07/12 00:47:32;;;;;;;;;;;;;;;29.43;52.93;96583.03;4179841;28;5832;-61
2023/07/12 00:49:35;;;;;;;;;;;;;;;29.43;52.99;96600.19;4184282;28;5783;-61
2023/07/12 00:51:49;;;;;;;;;;;;;;;29.44;52.82;96587.38;4184279;28;5794;-60
2023/07/12 00:53:53;;;;;;;;;;;;;;;29.41;52.91;96599.69;4184109;28;5871;-61
2023/07/12 00:56:01;;;;;;;;;;;;;;;29.40;52.63;96576.31;4184306;28;5862;-60
2023/07/12 00:58:04;;;;;;;;;;;;;;;29.41;52.53;96567.03;4184394;28;5786;-61
2023/07/12 01:00:11;;;;;;;;;;;;;;;29.42;52.54;96568.63;4184291;28;5807;-61
2023/07/12 01:02:16;;;;;;;;;;;;;;;29.42;52.44;96628.53;4183104;28;5738;-60
2023/07/12 01:04:23;;;;;;;;;;;;;;;29.42;52.42;96677.53;4176784;28;5888;-60
2023/07/12 01:06:26;;;;;;;;;;;;;;;29.43;52.40;96672.91;4182466;28;5798;-60
2023/07/12 01:08:30;;;;;;;;;;;;;;;29.37;52.47;96664.09;4183797;28;5905;-61
2023/07/12 01:10:33;;;;;;;;;;;;;;;29.31;52.42;96608.19;4183993;28;6624;-61
2023/07/12 01:12:36;;;;;;;;;;;;;;;29.26;52.43;96532.13;4183464;28;5862;-61
2023/07/12 01:14:39;;;;;;;;;;;;;;;29.13;52.57;96561.09;4183893;28;5787;-60
2023/07/12 01:16:45;;;;;;;;;;;;;;;29.07;52.60;96621.41;4183725;28;5882;-60
2023/07/12 01:18:47;;;;;;;;;;;;;;;29.01;52.93;96622.69;4235259;28;5708;-60
2023/07/12 01:21:04;;;;;;;;;;;;;;;28.93;52.79;96610.66;4234698;28;5597;-60
2023/07/12 01:23:08;;;;;;;;;;;;;;;28.93;52.78;96603.28;4233925;28;5536;-60
2023/07/12 01:25:13;;;;;;;;;;;;;;;28.96;52.79;96589.06;4234996;28;5072;-61
2023/07/12 01:27:18;;;;;;;;;;;;;;;28.97;52.87;96560.72;4237010;27;5722;-60
2023/07/12 01:29:21;;;;;;;;;;;;;;;28.91;52.72;96559.28;4230120;28;5621;-60
2023/07/12 01:31:26;;;;;;;;;;;;;;;28.91;52.97;96542.16;4240930;27;5090;-60
2023/07/12 01:33:30;;;;;;;;;;;;;;;28.92;52.84;96536.38;4235772;28;5703;-60
2023/07/12 01:35:32;;;;;;;;;;;;;;;28.84;52.78;96526.25;4235261;28;6207;-61
2023/07/12 01:37:37;;;;;;;;;;;;;;;28.79;52.77;96523.69;4228598;27;5592;-60
2023/07/12 01:39:40;;;;;;;;;;;;;;;28.81;52.75;96545.94;4235413;28;5560;-60
2023/07/12 01:41:43;;;;;;;;;;;;;;;28.82;52.76;96550.25;4235745;28;5731;-61
2023/07/12 01:43:46;;;;;;;;;;;;;;;28.84;52.75;96564.34;4235638;28;5763;-61
2023/07/12 01:45:49;;;;;;;;;;;;;;;28.88;52.87;96599.91;4235352;28;5699;-60
2023/07/12 01:47:52;;;;;;;;;;;;;;;28.87;52.88;96592.81;4235612;28;5608;-60
2023/07/12 01:49:55;;;;;;;;;;;;;;;28.83;53.08;96603.53;4235084;28;5604;-60
2023/07/12 01:51:58;;;;;;;;;;;;;;;28.83;53.10;96576.34;4235673;28;5509;-60
2023/07/12 01:54:02;;;;;;;;;;;;;;;28.84;53.21;96569.78;4234109;27;6933;-61
2023/07/12 01:56:06;;;;;;;;;;;;;;;28.81;53.13;96583.22;4227433;28;5604;-60
2023/07/12 01:58:10;;;;;;;;;;;;;;;28.77;53.47;96607.53;4235704;28;6547;-60
2023/07/12 02:00:15;;;;;;;;;;;;;;;28.73;53.57;96622.06;4235386;28;5623;-60
2023/07/12 02:02:17;;;;;;;;;;;;;;;28.75;53.54;96620.63;4235620;28;5212;-60
2023/07/12 02:04:20;;;;;;;;;;;;;;;28.78;53.76;96636.34;4234942;28;5602;-60
2023/07/12 02:06:22;;;;;;;;;;;;;;;28.79;53.42;96657.00;4235387;28;5748;-60
2023/07/12 02:08:25;;;;;;;;;;;;;;;28.77;53.58;96675.56;4235168;28;5516;-60
2023/07/12 02:10:29;;;;;;;;;;;;;;;28.75;53.80;96658.72;4226288;27;5775;-61
2023/07/12 02:12:32;;;;;;;;;;;;;;;28.68;53.92;96667.34;4234777;28;5693;-61
2023/07/12 02:14:35;;;;;;;;;;;;;;;28.47;54.06;96655.38;4235261;28;7687;-61
2023/07/12 02:16:37;;;;;;;;;;;;;;;28.25;54.73;96642.59;4235045;28;5712;-60
2023/07/12 02:18:40;;;;;;;;;;;;;;;28.02;55.41;96636.38;4234254;27;5606;-59
2023/07/12 02:20:42;;;;;;;;;;;;;;;27.60;56.03;96682.94;4233229;28;5699;-59
2023/07/12 02:22:46;;;;;;;;;;;;;;;27.42;56.90;96739.78;4233341;27;7738;-60
2023/07/12 02:24:50;;;;;;;;;;;;;;;27.42;57.76;96766.94;4234026;27;5589;-60
2023/07/12 02:26:54;;;;;;;;;;;;;;;27.40;58.27;96750.13;4231699;27;5594;-60
2023/07/12 02:28:57;;;;;;;;;;;;;;;27.35;58.99;96771.16;4218453;28;5982;-60
2023/07/12 02:31:14;;;;;;;;;;;;;;;27.27;59.67;96808.72;4226591;27;5633;-60
2023/07/12 02:33:17;;;;;;;;;;;;;;;27.27;60.14;96806.00;4219799;27;5628;-60
2023/07/12 02:35:22;;;;;;;;;;;;;;;27.22;60.84;96821.59;4233146;27;5758;-60
2023/07/12 02:37:25;;;;;;;;;;;;;;;27.16;61.59;96861.56;4221140;28;5690;-60
2023/07/12 02:39:28;;;;;;;;;;;;;;;27.09;62.19;96869.31;4217893;28;5750;-61
2023/07/12 02:41:31;;;;;;;;;;;;;;;26.98;63.05;96870.56;4245232;27;5094;-61
2023/07/12 02:43:36;;;;;;;;;;;;;;;26.86;63.98;96860.16;4234871;27;5646;-61
2023/07/12 02:45:38;;;;;;;;;;;;;;;26.73;64.61;96832.97;4221058;27;5675;-60
2023/07/12 02:47:41;;;;;;;;;;;;;;;26.51;65.41;96839.84;4230765;27;5683;-61
2023/07/12 02:49:45;;;;;;;;;;;;;;;26.47;65.83;96776.44;4226838;27;5856;-60
2023/07/12 02:51:48;;;;;;;;;;;;;;;26.45;66.15;96735.28;4227321;27;6198;-61
2023/07/12 02:53:51;;;;;;;;;;;;;;;26.44;66.49;96686.78;4217666;27;5616;-61
2023/07/12 02:55:54;;;;;;;;;;;;;;;26.34;67.05;96636.25;4225645;27;5703;-61
2023/07/12 02:57:57;;;;;;;;;;;;;;;26.26;67.08;96604.41;4235280;27;5597;-61
2023/07/12 03:00:01;;;;;;;;;;;;;;;26.21;67.68;96582.84;4234064;28;5842;-60
2023/07/12 03:02:07;;;;;;;;;;;;;;;26.27;67.82;96597.88;4230848;27;5683;-60
2023/07/12 03:04:10;;;;;;;;;;;;;;;26.24;68.54;96625.59;4218496;28;5632;-61
2023/07/12 03:06:13;;;;;;;;;;;;;;;26.35;68.73;96654.13;4233213;28;5824;-61
2023/07/12 03:08:15;;;;;;;;;;;;;;;26.33;68.60;96694.25;4233998;28;5110;-61
2023/07/12 03:10:18;;;;;;;;;;;;;;;26.34;69.19;96722.97;4217543;28;5631;-61
2023/07/12 03:12:20;;;;;;;;;;;;;;;26.36;69.29;96739.72;4230664;27;5675;-61
2023/07/12 03:14:25;;;;;;;;;;;;;;;26.33;69.53;96764.72;4237904;27;5497;-61
2023/07/12 03:16:29;;;;;;;;;;;;;;;26.31;69.83;96785.91;4234164;28;5593;-61
2023/07/12 03:18:32;;;;;;;;;;;;;;;26.24;69.90;96793.56;4231362;28;5683;-61
2023/07/12 03:20:35;;;;;;;;;;;;;;;26.22;70.33;96798.50;4233724;28;5794;-60
2023/07/12 03:22:37;;;;;;;;;;;;;;;26.29;70.74;96820.63;4234302;28;5593;-61
2023/07/12 03:24:40;;;;;;;;;;;;;;;26.36;70.74;96823.75;4233786;28;7727;-61
2023/07/12 03:26:43;;;;;;;;;;;;;;;26.43;70.80;96818.00;4233920;28;6396;-61
2023/07/12 03:28:46;;;;;;;;;;;;;;;26.40;71.09;96808.56;4234112;28;5598;-61
2023/07/12 03:30:57;;;;;;;;;;;;;;;26.38;71.38;96802.59;4234375;28;5707;-61
2023/07/12 03:33:01;;;;;;;;;;;;;;;26.42;71.88;96806.34;4239618;28;5788;-61
2023/07/12 03:35:05;;;;;;;;;;;;;;;26.45;71.53;96816.59;4231048;28;5608;-60
2023/07/12 03:37:08;;;;;;;;;;;;;;;26.42;71.74;96816.38;4238835;28;5748;-61
2023/07/12 03:39:11;;;;;;;;;;;;;;;26.38;71.77;96818.88;4238897;27;5609;-60
2023/07/12 03:41:15;;;;;;;;;;;;;;;26.39;72.03;96815.88;4239611;28;5672;-61
2023/07/12 03:43:21;;;;;;;;;;;;;;;26.40;72.05;96808.56;4239939;28;5703;-61
2023/07/12 03:45:24;;;;;;;;;;;;;;;26.46;72.22;96811.97;4239832;28;5186;-60
2023/07/12 03:47:27;;;;;;;;;;;;;;;26.49;72.62;96801.34;4239587;28;5824;-60
2023/07/12 03:49:31;;;;;;;;;;;;;;;26.43;72.61;96805.25;4239595;28;5781;-60
2023/07/12 03:51:34;;;;;;;;;;;;;;;26.45;72.73;96808.47;4238256;28;5715;-61
2023/07/12 03:53:37;;;;;;;;;;;;;;;26.49;72.79;96814.91;4238088;28;6515;-61
2023/07/12 03:55:41;;;;;;;;;;;;;;;26.56;73.09;96790.13;4237377;28;5769;-61
2023/07/12 03:57:44;;;;;;;;;;;;;;;26.56;72.91;96792.84;4237163;27;5605;-61
2023/07/12 03:59:47;;;;;;;;;;;;;;;26.59;73.18;96808.53;4235971;27;6346;-59
2023/07/12 04:01:50;;;;;;;;;;;;;;;26.63;73.28;96815.78;4231598;27;5604;-59
2023/07/12 04:03:53;;;;;;;;;;;;;;;26.69;73.30;96809.16;4239485;28;5609;-59
2023/07/12 04:05:56;;;;;;;;;;;;;;;26.75;73.24;96803.69;4236186;27;5807;-59
2023/07/12 04:07:59;;;;;;;;;;;;;;;26.79;73.24;96782.97;4237829;27;5792;-60
2023/07/12 04:10:01;;;;;;;;;;;;;;;26.83;73.23;96779.38;4232328;27;5620;-59
2023/07/12 04:12:05;;;;;;;;;;;;;;;26.87;73.22;96780.41;4231004;28;5823;-59
2023/07/12 04:14:08;;;;;;;;;;;;;;;26.84;73.16;96786.44;4239365;28;5741;-59
2023/07/12 04:16:13;;;;;;;;;;;;;;;26.83;73.26;96789.41;4239506;28;5778;-59
2023/07/12 04:18:16;;;;;;;;;;;;;;;26.86;73.27;96805.91;4239428;28;5644;-59
2023/07/12 04:20:19;;;;;;;;;;;;;;;26.84;73.22;96818.16;4238877;28;5802;-59
2023/07/12 04:22:23;;;;;;;;;;;;;;;26.79;73.17;96834.50;4234630;27;5823;-59
2023/07/12 04:24:26;;;;;;;;;;;;;;;26.80;73.22;96838.84;4238817;28;5625;-59
2023/07/12 04:26:29;;;;;;;;;;;;;;;26.83;73.30;96832.81;4239070;28;5525;-59
2023/07/12 04:28:34;;;;;;;;;;;;;;;26.86;73.31;96829.53;4238906;28;5590;-59
2023/07/12 04:30:37;;;;;;;;;;;;;;;26.94;73.25;96839.69;4239145;28;5729;-59
2023/07/12 04:32:40;;;;;;;;;;;;;;;26.98;73.15;96822.53;4239092;28;5677;-60
2023/07/12 04:34:43;;;;;;;;;;;;;;;27.00;73.00;96822.22;4238528;28;5606;-59
2023/07/12 04:36:46;;;;;;;;;;;;;;;26.98;73.15;96813.59;4239175;28;5810;-59
2023/07/12 04:38:51;;;;;;;;;;;;;;;27.03;73.16;96805.38;4243035;27;5505;-59
2023/07/12 04:40:54;;;;;;;;;;;;;;;27.04;73.00;96801.56;4237635;27;5625;-60
2023/07/12 04:42:57;;;;;;;;;;;;;;;27.06;72.94;96804.78;4237346;28;5629;-60
2023/07/12 04:45:00;;;;;;;;;;;;;;;27.05;72.94;96805.88;4234459;28;5695;-59
2023/07/12 04:47:03;;;;;;;;;;;;;;;27.07;73.20;96805.56;4231749;28;5801;-59
2023/07/12 04:49:06;;;;;;;;;;;;;;;27.12;72.72;96806.31;4209069;28;5740;-59
2023/07/12 04:51:09;;;;;;;;;;;;;;;27.15;72.77;96808.41;4236114;28;5804;-59
2023/07/12 04:53:12;;;;;;;;;;;;;;;27.18;72.72;96809.72;4235890;28;5710;-59
2023/07/12 04:55:24;;;;;;;;;;;;;;;27.18;72.58;96807.00;4233730;28;5608;-59
2023/07/12 04:57:27;;;;;;;;;;;;;;;27.16;72.26;96803.78;4235288;28;5928;-59
2023/07/12 04:59:30;;;;;;;;;;;;;;;27.11;72.23;96791.13;4235287;28;5622;-59
2023/07/12 05:01:34;;;;;;;;;;;;;;;27.12;72.39;96781.88;4235312;28;5588;-60
2023/07/12 05:03:37;;;;;;;;;;;;;;;27.15;72.27;96786.69;4235814;28;5739;-59
2023/07/12 05:05:40;;;;;;;;;;;;;;;27.20;72.33;96777.69;4235245;28;5691;-59
2023/07/12 05:07:42;;;;;;;;;;;;;;;27.21;72.13;96771.94;4235522;28;6311;-59
2023/07/12 05:09:45;;;;;;;;;;;;;;;27.22;72.11;96759.97;4235726;28;5698;-59
2023/07/12 05:11:51;;;;;;;;;;;;;;;27.25;71.92;96756.66;4233711;27;5697;-59
2023/07/12 05:13:57;;;;;;;;;;;;;;;27.19;71.76;96748.94;4233903;27;5512;-59
2023/07/12 05:16:01;;;;;;;;;;;;;;;27.18;71.78;96729.13;4216269;28;5600;-60
2023/07/12 05:18:04;;;;;;;;;;;;;;;27.19;71.59;96738.88;4228806;27;5720;-59
2023/07/12 05:20:14;;;;;;;;;;;;;;;27.20;71.42;96726.94;4232998;27;5770;-60
2023/07/12 05:22:17;;;;;;;;;;;;;;;27.22;71.25;96724.72;4237101;27;5613;-60
2023/07/12 05:24:20;;;;;;;;;;;;;;;27.22;71.15;96729.34;4235409;28;5751;-60
2023/07/12 05:26:23;;;;;;;;;;;;;;;27.28;71.12;96736.25;4235384;28;5747;-60
2023/07/12 05:28:27;;;;;;;;;;;;;;;27.31;71.23;96741.09;4235656;28;5680;-60
2023/07/12 05:30:31;;;;;;;;;;;;;;;27.36;71.01;96751.03;4230661;28;5103;-60
2023/07/12 05:32:34;;;;;;;;;;;;;;;27.40;70.87;96760.97;4230242;28;5689;-58
2023/07/12 05:34:38;;;;;;;;;;;;;;;27.47;70.87;96760.59;4235744;28;5612;-57
2023/07/12 05:36:41;;;;;;;;;;;;;;;27.54;70.66;96771.84;4235974;28;5808;-59
2023/07/12 05:38:46;;;;;;;;;;;;;;;27.61;70.50;96769.53;4230210;28;5800;-59
2023/07/12 05:40:49;;;;;;;;;;;;;;;27.66;70.48;96753.16;4233815;28;5919;-57
2023/07/12 05:42:52;;;;;;;;;;;;;;;27.73;70.23;96741.88;4235961;28;5825;-58
2023/07/12 05:44:56;;;;;;;;;;;;;;;27.74;70.03;96741.56;4235848;28;5597;-58
2023/07/12 05:46:59;;;;;;;;;;;;;;;27.75;70.35;96729.63;4234861;27;5830;-58
2023/07/12 05:49:02;;;;;;;;;;;;;;;27.74;70.02;96728.00;4235083;28;5778;-58
2023/07/12 05:51:07;;;;;;;;;;;;;;;27.72;69.95;96729.41;4235329;28;5812;-58
2023/07/12 05:53:11;;;;;;;;;;;;;;;27.71;69.75;96720.47;4235517;28;5630;-60
2023/07/12 05:55:18;;;;;;;;;;;;;;;27.73;69.52;96720.16;4234109;28;5683;-60
2023/07/12 05:57:21;;;;;;;;;;;;;;;27.74;69.37;96727.19;4235621;28;5593;-59
2023/07/12 05:59:23;;;;;;;;;;;;;;;27.71;69.06;96722.38;4235441;28;5725;-59
2023/07/12 06:01:27;;;;;;;;;;;;;;;27.71;68.84;96728.59;4235276;28;5609;-59
2023/07/12 06:03:32;;;;;;;;;;;;;;;27.75;69.06;96717.97;4232221;27;5776;-59
2023/07/12 06:05:35;;;;;;;;;;;;;;;27.88;68.63;96719.84;4235035;28;5692;-59
2023/07/12 06:07:38;;;;;;;;;;;;;;;28.01;68.42;96726.34;4232088;28;5758;-59
2023/07/12 06:09:41;;;;;;;;;;;;;;;28.13;68.11;96734.75;4235047;28;5929;-59
2023/07/12 06:11:44;;;;;;;;;;;;;;;28.23;67.99;96742.66;4232868;28;5513;-59
2023/07/12 06:13:47;;;;;;;;;;;;;;;28.31;68.02;96732.97;4235210;28;5605;-59
2023/07/12 06:15:51;;;;;;;;;;;;;;;28.33;67.73;96739.75;4233645;28;5621;-59
2023/07/12 06:17:55;;;;;;;;;;;;;;;28.35;67.60;96737.50;4233798;28;5505;-59
2023/07/12 06:19:58;;;;;;;;;;;;;;;28.35;67.68;96742.94;4232068;28;5771;-58
2023/07/12 06:22:01;;;;;;;;;;;;;;;28.35;67.42;96742.94;4234580;28;5590;-59
2023/07/12 06:24:05;;;;;;;;;;;;;;;28.36;67.31;96741.03;4233031;28;5601;-59
2023/07/12 06:26:08;;;;;;;;;;;;;;;28.34;67.11;96741.34;4234334;28;5596;-59
2023/07/12 06:28:11;;;;;;;;;;;;;;;28.32;67.17;96729.97;4234450;28;5590;-58
2023/07/12 06:30:17;;;;;;;;;;;;;;;28.31;67.11;96735.69;4228055;28;5703;-59
2023/07/12 06:32:21;;;;;;;;;;;;;;;28.33;66.61;96734.31;4233175;28;5601;-59
2023/07/12 06:34:25;;;;;;;;;;;;;;;28.37;66.70;96735.28;4233821;27;5589;-60
2023/07/12 06:36:28;;;;;;;;;;;;;;;28.39;66.55;96727.63;4229044;27;5585;-61
2023/07/12 06:38:31;;;;;;;;;;;;;;;28.44;66.43;96734.88;4230422;28;5668;-61
2023/07/12 06:40:34;;;;;;;;;;;;;;;28.49;66.12;96736.66;4232488;28;5699;-61
2023/07/12 06:42:37;;;;;;;;;;;;;;;28.55;65.99;96747.09;4233249;28;5597;-61
2023/07/12 06:44:40;;;;;;;;;;;;;;;28.58;65.82;96753.81;4228826;27;5768;-76
2023/07/12 06:46:42;;;;;;;;;;;;;;;28.63;65.71;96750.97;4235796;28;5605;-78
2023/07/12 06:48:45;;;;;;;;;;;;;;;28.68;65.52;96745.41;4235854;28;5098;-78
2023/07/12 06:50:50;;;;;;;;;;;;;;;28.71;65.33;96753.75;4234985;28;5704;-67
2023/07/12 06:52:52;;;;;;;;;;;;;;;28.72;65.24;96757.28;4234039;28;5704;-69
2023/07/12 06:54:55;;;;;;;;;;;;;;;28.69;65.29;96757.91;4237013;27;5775;-67
2023/07/12 06:56:58;;;;;;;;;;;;;;;28.71;65.01;96761.09;4233436;28;6788;-71
2023/07/12 06:59:01;;;;;;;;;;;;;;;28.75;64.76;96764.81;4235391;28;5637;-76
2023/07/12 07:01:08;;;;;;;;;;;;;;;28.78;64.66;96763.41;4232246;27;5664;-73
2023/07/12 07:03:13;;;;;;;;;;;;;;;28.77;64.74;96754.44;4234649;28;5692;-74
2023/07/12 07:05:15;;;;;;;;;;;;;;;28.75;64.47;96766.72;4234539;28;5718;-73
2023/07/12 07:07:19;;;;;;;;;;;;;;;28.72;64.46;96765.44;4235094;28;5924;-75
2023/07/12 07:09:22;;;;;;;;;;;;;;;28.69;64.23;96774.22;4235610;28;6320;-73
2023/07/12 07:11:25;;;;;;;;;;;;;;;28.67;64.23;96771.00;4236347;27;6291;-80
2023/07/12 07:13:29;;;;;;;;;;;;;;;28.63;63.86;96778.16;4237211;28;5822;-78
2023/07/12 07:15:32;;;;;;;;;;;;;;;28.57;63.66;96787.56;4236307;28;5497;-76
2023/07/12 07:17:35;;;;;;;;;;;;;;;28.53;63.50;96789.28;4235572;27;5596;-75
2023/07/12 07:19:37;;;;;;;;;;;;;;;28.48;63.28;96792.94;4235490;28;5595;-74
2023/07/12 07:21:41;;;;;;;;;;;;;;;28.45;63.38;96790.84;4234198;28;5568;-69
2023/07/12 07:23:45;;;;;;;;;;;;;;;28.43;63.03;96801.22;4233902;28;5720;-72
2023/07/12 07:25:49;;;;;;;;;;;;;;;28.41;62.86;96798.00;4234096;28;5600;-69
2023/07/12 07:27:51;;;;;;;;;;;;;;;28.41;62.89;96798.78;4229844;27;6973;-64
2023/07/12 07:29:54;;;;;;;;;;;;;;;28.38;62.68;96796.69;4236358;27;5578;-70
2023/07/12 07:31:57;;;;;;;;;;;;;;;28.36;62.30;96800.84;4233568;27;5793;-69
2023/07/12 07:34:00;;;;;;;;;;;;;;;28.35;62.29;96807.41;4229662;27;5601;-65
2023/07/12 07:36:06;;;;;;;;;;;;;;;28.30;62.05;96802.84;4198036;28;5763;-69
2023/07/12 07:38:09;;;;;;;;;;;;;;;28.26;62.06;96804.56;4192654;28;5706;-68
2023/07/12 07:40:14;;;;;;;;;;;;;;;28.24;61.97;96809.50;4200324;28;5740;-70
2023/07/12 07:42:16;;;;;;;;;;;;;;;28.25;61.99;96819.25;4200419;28;6289;-71
2023/07/12 07:44:19;;;;;;;;;;;;;;;28.28;61.79;96817.88;4200365;28;5696;-71
2023/07/12 07:46:22;;;;;;;;;;;;;;;28.29;61.34;96809.41;4201611;28;5851;-74
2023/07/12 07:48:26;;;;;;;;;;;;;;;28.26;61.26;96815.44;4201428;28;5639;-64
2023/07/12 07:50:29;;;;;;;;;;;;;;;28.24;61.33;96817.66;4199949;28;6866;-71
2023/07/12 07:52:32;;;;;;;;;;;;;;;28.23;61.26;96810.63;4200259;28;5757;-72
2023/07/12 07:54:34;;;;;;;;;;;;;;;28.20;61.03;96800.38;4199773;28;5696;-69
2023/07/12 07:56:39;;;;;;;;;;;;;;;28.24;60.85;96801.34;4200579;28;5707;-72
2023/07/12 07:58:42;;;;;;;;;;;;;;;28.27;60.80;96814.34;4200309;28;5677;-70
2023/07/12 08:00:45;;;;;;;;;;;;;;;28.29;60.52;96803.97;4200715;28;5833;-69
2023/07/12 08:02:50;;;;;;;;;;;;;;;28.31;60.25;96809.91;4204312;28;5779;-72
2023/07/12 08:04:53;;;;;;;;;;;;;;;28.32;60.43;96805.28;4199540;28;7887;-71
2023/07/12 08:06:57;;;;;;;;;;;;;;;28.34;60.34;96813.94;4199451;28;5775;-77
2023/07/12 08:09:00;;;;;;;;;;;;;;;28.34;60.23;96817.47;4200974;28;5681;-79
2023/07/12 08:11:05;;;;;;;;;;;;;;;28.36;60.00;96817.16;4200587;28;6537;-73
2023/07/12 08:13:12;;;;;;;;;;;;;;;28.36;59.84;96809.81;4192298;28;5093;-64
2023/07/12 08:15:15;;;;;;;;;;;;;;;28.39;59.80;96809.19;4199996;28;5697;-67
2023/07/12 08:17:18;;;;;;;;;;;;;;;28.39;59.42;96809.19;4199819;28;5795;-67
2023/07/12 08:19:22;;;;;;;;;;;;;;;28.40;59.49;96812.69;4202675;28;5692;-67
2023/07/12 08:21:25;;;;;;;;;;;;;;;28.43;59.47;96806.66;4203432;28;5705;-75
2023/07/12 08:23:29;;;;;;;;;;;;;;;28.44;59.11;96800.13;4198696;28;6373;-66
2023/07/12 08:25:31;;;;;;;;;;;;;;;28.49;59.13;96796.47;4199657;28;5712;-65
2023/07/12 08:27:34;;;;;;;;;;;;;;;28.49;58.86;96791.84;4198020;28;5106;-70
2023/07/12 08:29:39;;;;;;;;;;;;;;;28.50;58.88;96792.63;4204634;28;5756;-67
2023/07/12 08:31:42;;;;;;;;;;;;;;;28.49;58.84;96791.03;4202257;28;5685;-67
2023/07/12 08:33:45;;;;;;;;;;;;;;;28.48;58.69;96792.13;4202065;28;7721;-67
2023/07/12 08:35:48;;;;;;;;;;;;;;;28.50;58.89;96785.28;4233400;27;5786;-76
2023/07/12 08:37:52;;;;;;;;;;;;;;;28.56;58.19;96794.13;4238071;28;5816;-67
2023/07/12 08:39:55;;;;;;;;;;;;;;;28.59;58.16;96801.66;4237271;28;5583;-70
2023/07/12 08:41:59;;;;;;;;;;;;;;;28.61;58.26;96789.34;4236626;28;5613;-70
2023/07/12 08:44:03;;;;;;;;;;;;;;;28.65;58.35;96792.25;4228888;28;5766;-66
2023/07/12 08:46:16;;;;;;;;;;;;;;;28.67;58.18;96792.78;4229549;28;5596;-67
2023/07/12 08:48:19;;;;;;;;;;;;;;;28.67;57.92;96784.63;4235496;27;5779;-67
2023/07/12 08:50:22;;;;;;;;;;;;;;;28.70;58.15;96797.59;4235955;28;5780;-68
2023/07/12 08:52:33;;;;;;;;;;;;;;;28.72;57.83;96798.06;4231172;28;5713;-69
2023/07/12 08:54:36;;;;;;;;;;;;;;;28.68;57.85;96794.38;4237908;27;5608;-71
2023/07/12 08:56:39;;;;;;;;;;;;;;;28.66;57.42;96800.13;4236183;28;5616;-69
2023/07/12 08:58:45;;;;;;;;;;;;;;;28.69;57.59;96799.50;4235927;28;5225;-69
2023/07/12 09:00:55;;;;;;;;;;;;;;;28.73;57.46;96799.69;4236286;28;5724;-72
2023/07/12 09:02:59;;;;;;;;;;;;;;;28.77;57.40;96797.97;4236254;28;5623;-70
2023/07/12 09:05:12;;;;;;;;;;;;;;;28.79;57.33;96784.84;4236046;28;5721;-72
2023/07/12 09:07:24;;;;;;;;;;;;;;;28.79;57.16;96794.94;4229379;28;5601;-70
2023/07/12 09:09:29;;;;;;;;;;;;;;;28.77;56.90;96797.13;4236670;28;5692;-71
2023/07/12 09:11:33;;;;;;;;;;;;;;;28.74;57.15;96798.56;4239012;27;5676;-69
2023/07/12 09:13:38;;;;;;;;;;;;;;;28.77;56.92;96795.25;4236030;28;5622;-73
2023/07/12 09:15:45;;;;;;;;;;;;;;;28.79;56.98;96801.19;4235077;27;5707;-73
2023/07/12 09:17:48;;;;;;;;;;;;;;;28.78;56.84;96796.84;4235850;28;5695;-73
2023/07/12 09:19:52;;;;;;;;;;;;;;;28.77;56.71;96784.38;4236125;28;5596;-76
2023/07/12 09:21:57;;;;;;;;;;;;;;;28.82;56.64;96772.53;4235738;28;5699;-64
2023/07/12 09:24:03;;;;;;;;;;;;;;;28.82;56.53;96772.53;4234688;28;5646;-73
2023/07/12 09:26:11;;;;;;;;;;;;;;;28.81;56.83;96774.47;4235565;28;6282;-66
2023/07/12 09:28:13;;;;;;;;;;;;;;;28.85;56.37;96764.53;4218483;28;6369;-76
2023/07/12 09:30:21;;;;;;;;;;;;;;;28.90;56.41;96769.09;4234392;27;5605;-72
2023/07/12 09:32:28;;;;;;;;;;;;;;;28.89;56.19;96773.75;4226688;28;5713;-70
2023/07/12 09:34:37;;;;;;;;;;;;;;;28.87;56.18;96764.22;4235837;28;5797;-73
2023/07/12 09:36:42;;;;;;;;;;;;;;;28.83;56.27;96780.38;4235237;28;5594;-69
2023/07/12 09:38:45;;;;;;;;;;;;;;;28.81;56.05;96798.94;4237427;28;5784;-70
2023/07/12 09:40:49;;;;;;;;;;;;;;;28.81;56.15;96800.84;4235665;28;5683;-73
2023/07/12 09:42:57;;;;;;;;;;;;;;;28.80;56.34;96786.47;4232358;27;5684;-65
2023/07/12 09:45:04;;;;;;;;;;;;;;;28.77;56.00;96738.13;4233149;27;5675;-68
2023/07/12 09:47:10;;;;;;;;;;;;;;;28.71;56.09;96715.66;4232515;28;5767;-66
2023/07/12 09:49:15;;;;;;;;;;;;;;;28.69;56.35;96758.69;4234585;27;5914;-67
2023/07/12 09:51:30;;;;;;;;;;;;;;;28.71;56.14;96772.78;4234720;28;5059;-67
2023/07/12 09:53:40;;;;;;;;;;;;;;;28.75;55.92;96775.69;4230661;28;5679;-66
2023/07/12 09:55:51;;;;;;;;;;;;;;;28.77;55.63;96784.38;4234946;28;5222;-67
2023/07/12 09:58:05;;;;;;;;;;;;;;;28.77;55.71;96778.09;4235018;28;5861;-66
2023/07/12 10:00:20;;;;;;;;;;;;;;;28.76;55.63;96769.13;4232495;28;5605;-67
2023/07/12 10:02:32;;;;;;;;;;;;;;;28.74;55.25;96765.91;4238800;27;5648;-67
2023/07/12 10:04:40;;;;;;;;;;;;;;;28.77;55.37;96773.47;4243331;27;5805;-69
2023/07/12 10:06:48;;;;;;;;;;;;;;;28.78;55.39;96775.09;4232838;27;5707;-65
2023/07/12 10:08:58;;;;;;;;;;;;;;;28.78;55.20;96766.13;4233728;28;5600;-75
2023/07/12 10:11:08;;;;;;;;;;;;;;;28.77;54.95;96773.47;4234695;28;5782;-74
2023/07/12 10:13:30;;;;;;;;;;;;;;;28.76;54.87;96771.84;4228074;28;5589;-75
2023/07/12 10:15:37;;;;;;;;;;;;;;;28.75;54.93;96755.84;4232777;28;5612;-75
2023/07/12 10:17:43;;;;;;;;;;;;;;;28.73;54.88;96772.47;4236337;27;5521;-75
2023/07/12 10:19:52;;;;;;;;;;;;;;;28.73;54.79;96777.91;4237545;27;5576;-71
2023/07/12 10:21:57;;;;;;;;;;;;;;;28.75;54.94;96775.69;4234630;28;5763;-72
2023/07/12 10:24:06;;;;;;;;;;;;;;;28.74;54.90;96776.81;4230288;27;5774;-73
2023/07/12 10:26:12;;;;;;;;;;;;;;;28.76;54.84;96779.22;4230514;28;5600;-70
2023/07/12 10:28:23;;;;;;;;;;;;;;;28.75;54.86;96794.72;4239209;27;5677;-73
2023/07/12 10:30:27;;;;;;;;;;;;;;;28.75;55.03;96800.16;4234474;28;5609;-67
2023/07/12 10:32:37;;;;;;;;;;;;;;;28.75;54.72;96793.94;4234688;28;5130;-69
2023/07/12 10:34:44;;;;;;;;;;;;;;;28.70;54.81;96792.94;4232721;27;5514;-72
2023/07/12 10:36:50;;;;;;;;;;;;;;;28.70;54.78;96773.09;4235013;28;5605;-77
2023/07/12 10:38:53;;;;;;;;;;;;;;;28.70;55.12;96773.09;4233341;27;5833;-73
2023/07/12 10:41:02;;;;;;;;;;;;;;;28.70;54.65;96790.22;4229942;28;5601;-69
2023/07/12 10:43:09;;;;;;;;;;;;;;;28.71;54.62;96788.31;4224905;28;5676;-71
2023/07/12 10:45:19;;;;;;;;;;;;;;;28.75;54.80;96789.28;4234189;28;5700;-68
2023/07/12 10:47:28;;;;;;;;;;;;;;;28.76;54.60;96785.44;4232566;28;5787;-66
2023/07/12 10:49:42;;;;;;;;;;;;;;;28.77;54.60;96800.69;4226175;27;5616;-66
2023/07/12 10:52:06;;;;;;;;;;;;;;;28.80;54.67;96800.06;4233446;28;5687;-66
2023/07/12 10:54:47;;;;;;;;;;;;;;;28.84;54.61;96794.78;4233419;27;5821;-66
2023/07/12 10:56:54;;;;;;;;;;;;;;;28.86;54.59;96782.47;4229472;27;5703;-67
2023/07/12 10:59:00;;;;;;;;;;;;;;;28.88;54.35;96777.59;4232530;28;5710;-66